Time;durP1;ratioP1;P1;durP2;ratioP2;P2;SDS_P1;SDS_P2;PMS_P1;PMS_P2;Temp;Humidity;BMP_temperature;BMP_pressure;BME280_temperature;BME280_humidity;BME280_pressure;Samples;Min_cycle;Max_cycle;Signal;HPM_P1;HPM_P2
2023/08/06 00:01:26;;;;;;;;;;;;;;;;;;;;;
2023/08/06 00:05:31;;;;;;;4.60;3.50;;;;;;;14.98;100.00;99199.60;128710;1278;128520;-74
2023/08/06 00:09:21;;;;;;;;;;;;;;;;;;;;;
2023/08/06 00:13:25;;;;;;;8.00;3.20;;;;;;;14.99;100.00;99173.80;123619;1289;5460598;-74
2023/08/06 00:17:14;;;;;;;3.70;3.40;;;;;;;14.98;100.00;99171.36;127693;1286;114806;-72
2023/08/06 00:21:02;;;;;;;4.70;3.60;;;;;;;14.99;100.00;99170.75;127704;1288;115389;-72
2023/08/06 00:25:06;;;;;;;4.10;3.10;;;;;;;15.00;100.00;99156.10;127119;1293;114884;-72
2023/08/06 00:28:58;;;;;;;6.60;3.20;;;;;;;15.00;100.00;99162.19;126342;1309;130039;-72
2023/08/06 00:36:54;;;;;;;3.90;3.60;;;;;;;15.00;100.00;99135.95;124184;1317;114988;-73
2023/08/06 00:40:56;;;;;;;4.10;3.00;;;;;;;15.00;100.00;99134.48;123697;1323;114835;-74
2023/08/06 00:49:31;;;;;;;6.40;3.30;;;;;;;15.02;100.00;99120.70;125863;1306;638598;-73
2023/08/06 00:53:14;;;;;;;7.60;3.40;;;;;;;15.00;100.00;99107.15;128719;1294;128456;-72
2023/08/06 01:01:17;;;;;;;;;;;;;;;;;;;;;
2023/08/06 01:05:21;;;;;;;3.90;2.60;;;;;;;14.95;100.00;99061.73;126843;1292;116574;-74
2023/08/06 01:09:25;;;;;;;5.40;2.50;;;;;;;14.94;100.00;99051.03;125652;1321;114997;-74
2023/08/06 01:13:44;;;;;;;3.10;2.70;;;;;;;14.91;100.00;99037.50;125054;1323;114889;-73
2023/08/06 01:17:34;;;;;;;;;;;;;;;;;;;;;
2023/08/06 01:26:15;;;;;;;2.60;2.40;;;;;;;14.85;100.00;99007.06;125904;1299;639099;-71
2023/08/06 01:34:23;;;;;;;1.90;1.80;;;;;;;14.81;100.00;98985.52;128388;1283;115302;-73
2023/08/06 01:38:28;;;;;;;1.90;1.80;;;;;;;14.79;100.00;98979.61;123100;1290;5491934;-70
2023/08/06 01:42:06;;;;;;;3.80;1.80;;;;;;;14.79;100.00;98983.39;126249;1299;115476;-67
2023/08/06 01:50:06;;;;;;;1.70;1.50;;;;;;;14.77;100.00;98939.82;126193;1317;114920;-74
2023/08/06 01:54:08;;;;;;;3.60;1.70;;;;;;;14.77;100.00;98951.73;126048;1301;130831;-74
2023/08/06 02:02:59;;;;;;;1.60;1.50;;;;;;;14.79;100.00;98934.08;125543;1303;637368;-74
2023/08/06 02:14:47;;;;;;;14.60;1.50;;;;;;;14.80;100.00;98926.46;124257;1280;5412491;-74
2023/08/06 02:18:49;;;;;;;4.90;1.20;;;;;;;14.83;100.00;98928.91;126618;1294;114891;-75
2023/08/06 02:22:49;;;;;;;;;;;;;;;;;;;;;
2023/08/06 02:27:01;;;;;;;;;;;;;;;;;;;;;
2023/08/06 02:35:28;;;;;;;3.70;1.90;;;;;;;14.86;100.00;98878.28;127166;1286;635896;-76
2023/08/06 02:39:22;;;;;;;1.60;1.50;;;;;;;14.83;100.00;98852.00;128908;1292;129769;-74
2023/08/06 02:43:15;;;;;;;2.90;1.40;;;;;;;14.81;100.00;98835.98;128283;1280;115225;-70
2023/08/06 02:59:46;;;;;;;1.90;1.50;;;;;;;14.75;100.00;98830.05;126302;1296;636129;-73
2023/08/06 03:07:52;;;;;;;1.50;1.40;;;;;;;14.71;100.00;98825.39;127767;1286;114909;-71
2023/08/06 03:11:53;;;;;;;1.10;1.00;;;;;;;14.68;100.00;98818.20;123780;1287;5437344;-71
2023/08/06 03:15:43;;;;;;;0.80;0.80;;;;;;;14.65;100.00;98822.77;126625;1314;115011;-69
2023/08/06 03:32:09;;;;;;;1.00;0.80;;;;;;;14.68;100.00;98839.83;127050;1300;635671;-72
2023/08/06 03:40:37;;;;;;;1.00;0.60;;;;;;;14.66;100.00;98812.88;125705;1310;642038;-74
2023/08/06 03:44:35;;;;;;;0.60;0.60;;;;;;;14.58;100.00;98810.98;128640;1270;127899;-71
2023/08/06 04:00:58;;;;;;;;;;;;;;;;;;;;;
2023/08/06 04:05:02;;;;;;;0.50;0.50;;;;;;;14.39;100.00;98787.27;128016;1301;127908;-73
2023/08/06 04:08:58;;;;;;;1.00;0.90;;;;;;;14.35;100.00;98794.27;127350;1289;115362;-70
2023/08/06 04:13:25;;;;;;;0.60;0.60;;;;;;;14.34;100.00;98800.97;126888;1303;114904;-75
2023/08/06 04:20:55;;;;;;;1.00;0.80;;;;;;;14.32;100.00;98816.81;124882;1323;115069;-74
2023/08/06 04:24:46;;;;;;;2.10;0.60;;;;;;;14.32;100.00;98811.25;123924;1319;115482;-69
2023/08/06 04:28:49;;;;;;;;;;;;;;;;;;;;;
2023/08/06 04:32:34;;;;;;;2.50;0.80;;;;;;;14.29;100.00;98810.94;123484;1320;115374;-76
2023/08/06 04:45:00;;;;;;;0.70;0.60;;;;;;;14.28;100.00;98803.80;128509;1279;128957;-74
2023/08/06 04:49:03;;;;;;;1.20;0.70;;;;;;;14.27;100.00;98789.20;127596;1286;115239;-73
2023/08/06 04:52:54;;;;;;;2.20;0.50;;;;;;;14.26;100.00;98776.92;123491;1297;5424143;-74
2023/08/06 04:56:57;;;;;;;1.10;0.60;;;;;;;14.24;100.00;98763.56;126199;1306;114876;-75
2023/08/06 05:00:59;;;;;;;2.00;0.40;;;;;;;14.26;100.00;98759.31;125662;1322;114977;-73
2023/08/06 05:04:47;;;;;;;0.90;0.60;;;;;;;14.25;100.00;98770.55;124247;1324;114900;-73
2023/08/06 05:13:14;;;;;;;0.50;0.50;;;;;;;14.28;100.00;98773.64;126534;1290;635929;-74
2023/08/06 05:17:08;;;;;;;;;;;;;;;;;;;;;
2023/08/06 05:21:13;;;;;;;1.00;0.60;;;;;;;14.23;100.00;98756.29;127635;1285;115713;-75
2023/08/06 05:29:17;;;;;;;2.80;0.80;;;;;;;14.21;100.00;98746.79;125066;1309;114986;-74
2023/08/06 05:45:35;;;;;;;0.50;0.30;;;;;;;14.23;100.00;98743.04;126397;1295;115449;-73
2023/08/06 05:53:46;;;;;;;;;;;;;;;;;;;;;
2023/08/06 05:57:46;;;;;;;;;;;;;;;;;;;;;
2023/08/06 06:01:39;;;;;;;1.50;0.80;;;;;;;14.24;100.00;98721.75;124125;1317;114868;-73
2023/08/06 06:10:06;;;;;;;0.50;0.50;;;;;;;14.25;100.00;98725.81;125930;1300;636669;-73
2023/08/06 06:18:00;;;;;;;;;;;;;;;;;;;;;
2023/08/06 06:22:08;;;;;;;3.90;0.60;;;;;;;14.19;100.00;98724.52;122965;1292;5437719;-71
2023/08/06 06:26:10;;;;;;;0.40;0.40;;;;;;;14.21;100.00;98743.78;125845;1302;115620;-71
2023/08/06 06:34:36;;;;;;;1.20;0.80;;;;;;;14.24;100.00;98761.25;125843;1297;636733;-74
2023/08/06 06:38:26;;;;;;;;;;;;;;;;;;;;;
2023/08/06 06:42:30;;;;;;;2.90;1.30;;;;;;;14.26;100.00;98733.23;127984;1280;116404;-72
2023/08/06 06:46:37;;;;;;;2.60;0.60;;;;;;;14.25;100.00;98720.96;122696;1290;5426533;-67
2023/08/06 06:50:30;;;;;;;;;;;;;;;;;;;;;
2023/08/06 06:54:22;;;;;;;;;;;;;;;;;;;;;
2023/08/06 06:58:45;;;;;;;1.20;0.60;;;;;;;14.36;100.00;98730.02;126557;1295;635961;-69
2023/08/06 07:07:16;;;;;;;1.40;0.40;;;;;;;14.41;100.00;98730.80;127856;1281;115583;-67
2023/08/06 07:10:42;;;;;;;;;;;;;;;;;;;;;
2023/08/06 07:14:45;;;;;;;2.60;0.60;;;;;;;14.54;100.00;98711.70;125849;1317;114891;-70
2023/08/06 07:18:45;;;;;;;0.70;0.40;;;;;;;14.63;100.00;98714.48;124988;1326;115053;-73
2023/08/06 07:22:47;;;;;;;1.40;0.50;;;;;;;14.65;100.00;98713.77;124638;1311;129741;-73
2023/08/06 07:31:01;;;;;;;;;;;;;;;;;;;;;
2023/08/06 07:35:05;;;;;;;1.80;1.00;;;;;;;14.69;100.00;98694.16;127890;1291;127921;-73
2023/08/06 07:38:55;;;;;;;1.80;0.60;;;;;;;14.75;100.00;98705.52;127709;1294;115033;-68
2023/08/06 07:42:46;;;;;;;2.80;0.60;;;;;;;14.81;100.00;98708.14;126014;1289;5456263;-66
2023/08/06 07:46:45;;;;;;;;;;;;;;;;;;;;;
2023/08/06 07:50:51;;;;;;;0.90;0.50;;;;;;;14.81;100.00;98682.80;124942;1321;129832;-65
2023/08/06 07:58:19;;;;;;;2.10;0.60;;;;;;;14.78;100.00;98685.98;123563;1319;115120;-64
2023/08/06 08:02:31;;;;;;;;;;;;;;;;;;;;;
2023/08/06 08:06:35;;;;;;;5.10;1.80;;;;;;;14.89;100.00;98681.68;127962;1288;128291;-65
2023/08/06 08:10:38;;;;;;;0.90;0.60;;;;;;;14.90;100.00;98663.83;127692;1297;115440;-68
2023/08/06 08:14:40;;;;;;;1.70;0.60;;;;;;;14.92;100.00;98649.13;122957;1291;5412831;-68
2023/08/06 08:18:34;;;;;;;1.10;0.60;;;;;;;14.94;100.00;98638.30;126731;1313;114988;-71
2023/08/06 08:30:39;;;;;;;1.00;1.00;;;;;;;15.01;100.00;98588.22;125613;1305;115436;-71
2023/08/06 08:34:39;;;;;;;1.00;0.90;;;;;;;15.09;100.00;98589.97;125009;1308;115041;-71
2023/08/06 08:43:16;;;;;;;2.00;1.90;;;;;;;15.32;100.00;98597.46;125769;1298;638704;-65
2023/08/06 08:47:29;;;;;;;;;;;;;;;;;;;;;
2023/08/06 08:51:21;;;;;;;1.60;1.50;;;;;;;15.49;100.00;98596.39;127095;1289;115418;-71
2023/08/06 08:59:29;;;;;;;3.10;2.00;;;;;;;15.51;100.00;98592.60;125816;1311;114835;-73
2023/08/06 09:03:31;;;;;;;2.00;1.90;;;;;;;15.56;100.00;98585.30;125003;1304;115017;-73
2023/08/06 09:07:33;;;;;;;2.80;2.10;;;;;;;15.61;100.00;98583.85;124520;1313;129789;-73
2023/08/06 09:11:27;;;;;;;3.00;1.90;;;;;;;15.66;100.00;98581.73;123797;1322;115338;-69
2023/08/06 09:19:51;;;;;;;1.60;1.50;;;;;;;15.74;100.00;98575.42;126567;1295;635929;-71
2023/08/06 09:40:07;;;;;;;0.80;0.80;;;;;;;15.61;100.00;98592.18;127703;1291;114859;-75
2023/08/06 09:44:08;;;;;;;0.70;0.70;;;;;;;15.55;100.00;98585.88;126968;1295;115041;-72
2023/08/06 09:48:03;;;;;;;1.20;1.10;;;;;;;15.53;100.00;98587.40;126591;1306;130731;-72
2023/08/06 09:52:04;;;;;;;0.70;0.70;;;;;;;15.49;100.00;98595.95;126522;1304;116567;-72
2023/08/06 10:00:34;;;;;;;1.30;1.00;;;;;;;15.45;100.00;98607.94;125567;1306;639401;-62
2023/08/06 10:04:30;;;;;;;1.20;0.80;;;;;;;15.43;100.00;98614.80;126972;1294;127050;-60
2023/08/06 10:08:33;;;;;;;2.60;0.90;;;;;;;15.44;100.00;98608.52;127313;1298;114948;-61
2023/08/06 10:12:35;;;;;;;1.20;0.80;;;;;;;15.45;100.00;98599.66;122892;1300;5417564;-64
2023/08/06 10:16:36;;;;;;;1.60;0.80;;;;;;;15.45;100.00;98608.42;126267;1303;115060;-63
2023/08/06 10:20:36;;;;;;;;;;;;;;;;;;;;;
2023/08/06 10:24:26;;;;;;;;;;;;;;;;;;;;;
2023/08/06 10:28:29;;;;;;;3.40;1.50;;;;;;;15.55;100.00;98551.21;125706;1317;128223;-62
2023/08/06 10:32:41;;;;;;;13.20;1.70;;;;;;;15.59;100.00;98530.76;125725;1301;116384;-63
2023/08/06 10:36:45;;;;;;;3.90;1.20;;;;;;;15.62;100.00;98528.48;125603;1301;114907;-65
2023/08/06 10:40:50;;;;;;;1.50;1.00;;;;;;;15.67;100.00;98542.03;125473;1308;114980;-62
2023/08/06 10:44:39;;;;;;;;;;;;;;;;;;;;;
2023/08/06 10:48:42;;;;;;;1.00;1.00;;;;;;;15.77;100.00;98532.39;125097;1302;129901;-62
2023/08/06 10:52:41;;;;;;;;;;;;;;;;;;;;;
2023/08/06 10:56:44;;;;;;;1.30;1.20;;;;;;;15.88;100.00;98521.45;126177;1295;114895;-63
2023/08/06 11:00:46;;;;;;;1.20;1.10;;;;;;;15.97;100.00;98512.70;126360;1292;115012;-67
2023/08/06 11:04:35;;;;;;;1.10;1.00;;;;;;;16.05;100.00;98507.30;125785;1296;115188;-65
2023/08/06 11:08:37;;;;;;;0.90;0.90;;;;;;;16.17;100.00;98504.55;125798;1316;129998;-62
2023/08/06 11:12:31;;;;;;;1.40;1.20;;;;;;;16.28;100.00;98503.55;125271;1302;114923;-65
2023/08/06 11:16:32;;;;;;;1.00;0.90;;;;;;;16.40;100.00;98504.38;125037;1314;114958;-64
2023/08/06 11:29:08;;;;;;;1.70;0.80;;;;;;;16.66;100.00;98498.98;125634;1299;639825;-62
2023/08/06 11:33:09;;;;;;;;;;;;;;;;;;;;;
2023/08/06 12:02:33;;;;;;;6.80;1.20;;;;;;;16.90;100.00;98503.41;124934;1274;5428764;-62
2023/08/06 12:06:34;;;;;;;1.40;0.60;;;;;;;16.84;100.00;98507.02;129047;1271;114934;-62
2023/08/06 12:10:37;;;;;;;2.00;0.60;;;;;;;16.76;100.00;98516.02;128274;1296;114927;-62
2023/08/06 12:14:44;;;;;;;1.40;0.80;;;;;;;16.70;100.00;98526.14;127213;1298;128764;-61
2023/08/06 12:18:45;;;;;;;0.90;0.50;;;;;;;16.68;100.00;98528.70;126688;1289;115568;-62
2023/08/06 12:22:47;;;;;;;2.00;1.20;;;;;;;16.64;100.00;98533.59;126096;1297;114977;-61
2023/08/06 12:30:50;;;;;;;1.40;0.80;;;;;;;16.54;100.00;98538.77;125685;1299;115796;-64
2023/08/06 12:39:17;;;;;;;;;;;;;;;;;;;;;
2023/08/06 12:55:32;;;;;;;1.80;0.70;;;;;;;16.41;100.00;98568.61;126471;1310;114877;-70
2023/08/06 12:59:36;;;;;;;5.10;1.20;;;;;;;16.42;100.00;98568.68;125666;1301;114939;-65
2023/08/06 13:03:35;;;;;;;1.90;1.10;;;;;;;16.44;100.00;98568.98;124690;1328;128649;-63
2023/08/06 13:12:05;;;;;;;1.30;1.20;;;;;;;16.57;100.00;98580.32;125558;1308;637813;-65
2023/08/06 13:16:06;;;;;;;1.60;0.90;;;;;;;16.63;100.00;98583.45;128004;1295;128817;-66
2023/08/06 13:20:14;;;;;;;3.00;1.00;;;;;;;16.69;100.00;98590.39;127476;1295;116401;-63
2023/08/06 13:24:16;;;;;;;1.30;1.00;;;;;;;16.73;99.98;98594.16;122729;1308;5418340;-63
2023/08/06 13:32:29;;;;;;;1.30;1.10;;;;;;;16.80;99.78;98596.55;125250;1302;640029;-64
2023/08/06 13:36:33;;;;;;;1.30;1.20;;;;;;;16.78;99.62;98598.20;127479;1283;128948;-63
2023/08/06 13:40:36;;;;;;;2.10;1.00;;;;;;;16.76;99.40;98599.25;127794;1283;115303;-64
2023/08/06 13:44:38;;;;;;;1.70;1.40;;;;;;;16.75;99.47;98610.56;122665;1307;5552995;-68
2023/08/06 13:48:40;;;;;;;1.00;1.00;;;;;;;16.79;99.78;98613.06;125854;1313;114908;-61
2023/08/06 13:52:41;;;;;;;1.60;1.00;;;;;;;16.84;99.82;98617.96;125326;1314;115006;-60
2023/08/06 13:56:43;;;;;;;1.70;1.20;;;;;;;16.88;99.26;98626.18;124653;1312;128784;-64
2023/08/06 14:05:07;;;;;;;2.50;1.10;;;;;;;16.96;99.40;98629.87;125479;1301;638574;-63
2023/08/06 14:13:15;;;;;;;2.60;1.10;;;;;;;16.98;98.69;98637.30;128707;1273;114996;-65
2023/08/06 14:17:19;;;;;;;0.80;0.80;;;;;;;16.91;98.18;98639.94;123522;1286;5454413;-63
2023/08/06 14:25:23;;;;;;;0.60;0.60;;;;;;;16.87;98.03;98643.75;126086;1306;115684;-60
2023/08/06 14:29:24;;;;;;;0.90;0.80;;;;;;;16.81;98.04;98646.16;125639;1317;114897;-63
2023/08/06 14:41:51;;;;;;;3.60;1.10;;;;;;;16.88;97.81;98656.30;127756;1280;128818;-69
2023/08/06 14:45:43;;;;;;;0.90;0.90;;;;;;;16.95;98.14;98657.09;126414;1311;115249;-63
2023/08/06 14:49:48;;;;;;;2.50;1.10;;;;;;;16.98;97.75;98667.22;122333;1295;5429127;-61
2023/08/06 14:53:47;;;;;;;2.50;2.30;;;;;;;16.96;97.64;98666.70;124697;1307;115059;-65
2023/08/06 15:01:59;;;;;;;2.70;1.50;;;;;;;16.94;97.21;98675.04;125590;1299;638796;-65
2023/08/06 15:06:02;;;;;;;5.40;1.50;;;;;;;16.93;97.61;98665.40;128951;1279;128402;-63
2023/08/06 15:10:05;;;;;;;1.70;1.60;;;;;;;16.96;97.75;98665.21;128650;1270;115510;-62
2023/08/06 15:13:59;;;;;;;;;;;;;;;;;;;;;
2023/08/06 15:26:36;;;;;;;1.80;1.70;;;;;;;17.00;96.95;98697.14;128110;1298;129042;-62
2023/08/06 15:30:39;;;;;;;2.30;1.20;;;;;;;16.94;96.81;98705.63;127042;1304;115323;-65
2023/08/06 15:34:39;;;;;;;1.40;1.20;;;;;;;16.87;96.64;98706.67;122074;1296;5423141;-61
2023/08/06 15:42:27;;;;;;;;;;;;;;;;;;;;;
2023/08/06 15:46:18;;;;;;;;;;;;;;;;;;;;;
2023/08/06 15:50:39;;;;;;;1.40;1.30;;;;;;;16.77;96.80;98720.00;126288;1293;642368;-61
2023/08/06 15:58:44;;;;;;;1.90;1.80;;;;;;;16.65;96.35;98721.00;126870;1290;115416;-64
2023/08/06 16:02:48;;;;;;;1.60;1.50;;;;;;;16.59;96.39;98719.75;122237;1310;5434811;-63
2023/08/06 16:15:10;;;;;;;3.50;1.80;;;;;;;16.50;96.45;98718.02;125906;1305;639972;-63
2023/08/06 16:19:12;;;;;;;2.60;1.80;;;;;;;16.49;96.74;98724.36;128132;1285;128923;-68
2023/08/06 16:23:14;;;;;;;1.80;1.70;;;;;;;16.45;96.18;98735.04;126841;1291;115477;-64
2023/08/06 16:27:09;;;;;;;3.60;2.00;;;;;;;16.39;96.35;98740.29;121784;1302;5400477;-62
2023/08/06 16:31:10;;;;;;;2.50;1.80;;;;;;;16.35;96.14;98745.95;124777;1310;115267;-61
2023/08/06 16:39:27;;;;;;;2.20;2.00;;;;;;;16.33;96.33;98753.70;126136;1298;637168;-64
2023/08/06 16:43:18;;;;;;;;;;;;;;;;;;;;;
2023/08/06 16:47:22;;;;;;;2.90;2.30;;;;;;;16.26;96.42;98769.86;128306;1293;115039;-63
2023/08/06 16:51:29;;;;;;;3.30;2.40;;;;;;;16.27;96.62;98780.44;125196;1300;5425624;-63
2023/08/06 16:55:31;;;;;;;2.90;2.70;;;;;;;16.23;96.54;98781.27;126157;1290;115220;-62
2023/08/06 16:59:32;;;;;;;4.10;2.20;;;;;;;16.20;96.49;98781.79;125281;1311;114976;-67
2023/08/06 17:08:09;;;;;;;5.10;2.70;;;;;;;16.15;96.27;98787.56;125352;1303;638603;-63
2023/08/06 17:12:13;;;;;;;2.80;2.60;;;;;;;16.09;96.24;98792.92;127338;1280;129087;-63
2023/08/06 17:16:16;;;;;;;3.00;2.80;;;;;;;16.04;96.29;98803.20;127008;1289;115244;-62
2023/08/06 17:24:10;;;;;;;4.20;2.50;;;;;;;15.96;96.57;98826.08;124861;1308;114908;-62
2023/08/06 17:28:08;;;;;;;;;;;;;;;;;;;;;
2023/08/06 17:32:23;;;;;;;;;;;;;;;;;;;;;
2023/08/06 17:40:34;;;;;;;4.10;3.40;;;;;;;15.77;96.59;98832.73;126335;1296;114928;-61
2023/08/06 17:44:27;;;;;;;;;;;;;;;;;;;;;
2023/08/06 17:48:23;;;;;;;3.20;2.90;;;;;;;15.66;96.51;98823.83;125419;1305;114968;-62
2023/08/06 17:52:07;;;;;;;5.00;3.80;;;;;;;15.59;96.42;98819.10;124722;1326;114990;-61
2023/08/06 17:56:00;;;;;;;4.80;3.50;;;;;;;15.52;96.63;98814.11;124505;1318;129962;-64
2023/08/06 18:04:30;;;;;;;5.20;3.20;;;;;;;15.45;96.68;98820.54;125624;1300;638849;-63
2023/08/06 18:12:08;;;;;;;;;;;;;;;;;;;;;
2023/08/06 18:16:09;;;;;;;;;;;;;;;;;;;;;
2023/08/06 18:19:49;;;;;;;4.10;3.30;;;;;;;15.25;96.53;98835.73;127634;1296;114954;-66
2023/08/06 18:23:44;;;;;;;3.70;3.40;;;;;;;15.23;97.01;98837.41;127293;1298;128263;-64
2023/08/06 18:27:21;;;;;;;4.70;3.10;;;;;;;15.20;96.97;98847.17;127608;1298;115309;-62
2023/08/06 18:30:56;;;;;;;;;;;;;;;;;;;;;
2023/08/06 18:34:43;;;;;;;5.30;3.40;;;;;;;15.15;97.09;98860.91;127703;1285;115000;-62
2023/08/06 18:38:27;;;;;;;;;;;;;;;;;;;;;
2023/08/06 18:42:12;;;;;;;3.50;3.10;;;;;;;15.10;97.33;98863.58;126748;1284;128028;-62
2023/08/06 18:46:07;;;;;;;;;;;;;;;;;;;;;
2023/08/06 18:50:12;;;;;;;3.70;3.30;;;;;;;15.08;97.44;98873.41;125883;1296;636216;-67
2023/08/06 18:54:08;;;;;;;7.50;3.30;;;;;;;15.05;97.42;98878.23;128272;1276;128743;-64
2023/08/06 18:57:56;;;;;;;;;;;;;;;;;;;;;
2023/08/06 19:01:48;;;;;;;3.80;3.30;;;;;;;15.04;97.53;98879.23;127396;1289;114920;-63
2023/08/06 19:05:48;;;;;;;;;;;;;;;;;;;;;
2023/08/06 19:09:32;;;;;;;;;;;;;;;;;;;;;
2023/08/06 19:13:07;;;;;;;4.10;3.70;;;;;;;14.96;97.42;98871.96;125987;1300;114920;-67
2023/08/06 19:16:44;;;;;;;;;;;;;;;;;;;;;
2023/08/06 19:20:31;;;;;;;;;;;;;;;;;;;;;
2023/08/06 19:24:32;;;;;;;4.00;3.30;;;;;;;14.88;97.64;98870.61;125754;1307;115124;-65
2023/08/06 19:28:16;;;;;;;3.40;3.10;;;;;;;14.86;97.79;98866.27;125047;1324;114978;-65
2023/08/06 19:32:12;;;;;;;3.80;3.50;;;;;;;14.85;97.94;98858.78;125632;1320;114955;-66
2023/08/06 19:35:47;;;;;;;4.00;3.60;;;;;;;14.84;97.89;98859.63;125337;1307;130609;-67
2023/08/06 19:39:28;;;;;;;4.40;3.20;;;;;;;14.82;97.84;98858.86;125115;1310;114976;-68
2023/08/06 19:43:09;;;;;;;3.20;2.90;;;;;;;14.81;97.98;98859.51;125533;1301;115352;-67
2023/08/06 19:47:08;;;;;;;;;;;;;;;;;;;;;
2023/08/06 19:51:00;;;;;;;;;;;;;;;;;;;;;
2023/08/06 19:59:18;;;;;;;3.80;3.50;;;;;;;14.82;98.47;98859.23;125975;1301;637884;-67
2023/08/06 20:03:12;;;;;;;7.20;3.80;;;;;;;14.81;98.06;98864.20;128545;1292;127925;-66
2023/08/06 20:07:08;;;;;;;4.60;3.50;;;;;;;14.81;98.43;98867.23;128912;1277;115230;-66
2023/08/06 20:11:06;;;;;;;9.60;3.90;;;;;;;14.82;98.47;98866.06;128763;1276;114884;-66
2023/08/06 20:15:04;;;;;;;;;;;;;;;;;;;;;
2023/08/06 20:18:55;;;;;;;6.80;4.80;;;;;;;14.83;98.64;98868.88;126824;1309;114873;-66
2023/08/06 20:22:41;;;;;;;;;;;;;;;;;;;;;
2023/08/06 20:26:35;;;;;;;;;;;;;;;;;;;;;
2023/08/06 20:30:19;;;;;;;5.10;4.60;;;;;;;14.82;98.67;98871.31;125029;1307;116517;-65
2023/08/06 20:38:18;;;;;;;6.30;5.50;;;;;;;14.84;99.00;98869.65;126266;1293;635818;-66
2023/08/06 20:41:59;;;;;;;8.20;5.10;;;;;;;14.83;98.90;98874.21;128767;1276;129123;-66
2023/08/06 20:45:54;;;;;;;;;;;;;;;;;;;;;
2023/08/06 20:49:50;;;;;;;9.50;5.30;;;;;;;14.83;99.27;98882.64;126759;1305;114866;-66
2023/08/06 20:53:41;;;;;;;;;;;;;;;;;;;;;
2023/08/06 20:57:21;;;;;;;;;;;;;;;;;;;;;
2023/08/06 21:01:05;;;;;;;7.10;5.10;;;;;;;14.85;99.28;98894.40;127855;1292;114925;-64
2023/08/06 21:05:17;;;;;;;6.90;5.50;;;;;;;14.85;99.37;98902.61;126715;1304;127668;-67
2023/08/06 21:09:10;;;;;;;;;;;;;;;;;;;;;
2023/08/06 21:13:11;;;;;;;7.50;4.80;;;;;;;14.86;99.33;98912.66;125322;1305;115060;-68
2023/08/06 21:17:13;;;;;;;5.10;4.60;;;;;;;14.86;99.46;98912.66;124532;1333;115022;-69
2023/08/06 21:21:13;;;;;;;6.90;5.50;;;;;;;14.86;99.53;98916.38;124900;1313;115076;-65
2023/08/06 21:25:13;;;;;;;7.60;5.40;;;;;;;14.85;99.47;98914.67;124808;1305;129966;-66
2023/08/06 21:28:56;;;;;;;8.30;4.80;;;;;;;14.84;99.37;98916.41;125347;1306;116556;-67
2023/08/06 21:32:49;;;;;;;5.90;5.40;;;;;;;14.84;99.41;98919.11;125144;1310;115092;-69
2023/08/06 21:36:36;;;;;;;;;;;;;;;;;;;;;
2023/08/06 21:40:23;;;;;;;;;;;;;;;;;;;;;
2023/08/06 21:44:18;;;;;;;5.30;4.80;;;;;;;14.82;99.58;98920.14;125310;1308;129774;-65
2023/08/06 21:48:19;;;;;;;9.40;4.90;;;;;;;14.80;99.50;98921.75;125654;1304;115544;-66
2023/08/06 21:52:18;;;;;;;6.60;5.00;;;;;;;14.78;99.31;98914.25;125846;1314;114987;-69
2023/08/06 21:56:11;;;;;;;6.00;5.20;;;;;;;14.74;99.26;98908.64;125705;1314;114993;-67
2023/08/06 22:00:13;;;;;;;6.10;5.10;;;;;;;14.70;99.33;98909.38;124528;1332;114969;-69
2023/08/06 22:08:18;;;;;;;7.10;5.70;;;;;;;14.63;99.30;98914.48;126683;1295;637434;-67
2023/08/06 22:12:13;;;;;;;;;;;;;;;;;;;;;
2023/08/06 22:15:57;;;;;;;;;;;;;;;;;;;;;
2023/08/06 22:19:55;;;;;;;9.70;5.00;;;;;;;14.47;99.15;98906.35;128779;1270;114864;-69
2023/08/06 22:23:31;;;;;;;;;;;;;;;;;;;;;
2023/08/06 22:27:29;;;;;;;;;;;;;;;;;;;;;
2023/08/06 22:31:15;;;;;;;;;;;;;;;;;;;;;
2023/08/06 22:35:08;;;;;;;;;;;;;;;;;;;;;
2023/08/06 22:39:02;;;;;;;5.80;4.90;;;;;;;14.26;99.67;98906.90;128161;1300;115347;-68
2023/08/06 22:42:54;;;;;;;;;;;;;;;;;;;;;
2023/08/06 22:46:55;;;;;;;;;;;;;;;;;;;;;
2023/08/06 22:50:49;;;;;;;6.80;5.10;;;;;;;14.14;99.74;98902.34;125845;1320;114922;-68
2023/08/06 22:54:39;;;;;;;6.10;5.40;;;;;;;14.11;99.71;98915.88;125644;1298;129691;-69
2023/08/06 22:58:23;;;;;;;;;;;;;;;;;;;;;
2023/08/06 23:02:25;;;;;;;7.10;4.80;;;;;;;14.04;99.51;98909.35;125580;1305;115001;-68
2023/08/06 23:09:46;;;;;;;6.40;4.70;;;;;;;14.00;99.77;98904.23;126564;1296;636324;-67
2023/08/06 23:13:51;;;;;;;7.60;4.40;;;;;;;13.96;99.77;98903.00;129376;1288;128558;-68
2023/08/06 23:17:38;;;;;;;9.20;4.70;;;;;;;13.93;99.64;98910.05;129503;1266;114845;-68
2023/08/06 23:21:25;;;;;;;6.20;4.40;;;;;;;13.91;99.82;98914.22;129658;1265;115224;-68
2023/08/06 23:25:25;;;;;;;7.50;4.40;;;;;;;13.88;99.98;98920.27;124039;1277;5416891;-67
2023/08/06 23:29:04;;;;;;;5.80;4.90;;;;;;;13.85;100.00;98907.73;126976;1304;114987;-68
2023/08/06 23:32:58;;;;;;;5.30;4.50;;;;;;;13.83;100.00;98906.98;127029;1288;129902;-67
2023/08/06 23:36:30;;;;;;;5.90;4.60;;;;;;;13.82;99.96;98909.80;126323;1312;115435;-67
2023/08/06 23:40:18;;;;;;;6.60;4.50;;;;;;;13.81;100.00;98915.61;126073;1301;114939;-68
2023/08/06 23:43:59;;;;;;;4.30;3.80;;;;;;;13.79;100.00;98920.76;125718;1311;114948;-68
2023/08/06 23:47:43;;;;;;;11.60;4.60;;;;;;;13.78;100.00;98918.53;126247;1317;114872;-69
2023/08/06 23:55:52;;;;;;;5.90;5.20;;;;;;;13.81;100.00;98920.48;126397;1292;636137;-68
2023/08/06 23:59:40;;;;;;;8.60;4.90;;;;;;;13.79;100.00;98926.67;128735;1295;127937;-69
